Terminal Aerodrome Forecast
Issued by NWS

Home | Current Version | Previous Version | Text Only | Print | Product List | Glossary On
Versions: 1 2 3 4 5 6 7 8 9 10 11 12 13 14 15
000
FTUS43 KGRB 040347 AAA
TAFRHI
TAF AMD
KRHI 040347Z 0404/0424 00000KT P6SM OVC020
     FM040600 17004KT P6SM BKN035 OVC080
     FM041400 16005KT P6SM OVC020 PROB30 0414/0416 4SM -SN OVC012
     FM041600 16006KT 2SM -SN OVC008
      TEMPO 0417/0421 1SM -SN
     FM042300 17007KT 3SM -SN OVC008=

USA.gov is the U.S. government's official web portal to all federal, state and local government web resources and services.